createdAt,value
2022-12-27T00:00:14.194Z,99.90
2022-12-27T00:02:42.693Z,99.90
2022-12-27T00:05:12.877Z,99.90
2022-12-27T00:07:42.460Z,99.90
2022-12-27T00:10:12.209Z,99.90
2022-12-27T00:12:40.367Z,99.90
2022-12-27T00:15:09.701Z,99.90
2022-12-27T00:17:38.264Z,99.90
2022-12-27T00:20:11.286Z,99.90
2022-12-27T00:22:42.177Z,99.90
2022-12-27T00:25:11.190Z,99.90
2022-12-27T00:27:39.852Z,99.90
2022-12-27T00:30:09.857Z,99.90
2022-12-27T00:32:38.009Z,99.90
2022-12-27T00:35:07.107Z,99.90
2022-12-27T00:37:35.167Z,99.90
2022-12-27T00:40:06.489Z,99.90
2022-12-27T00:42:34.615Z,99.90
2022-12-27T00:45:02.736Z,99.90
2022-12-27T00:47:30.757Z,99.90
2022-12-27T00:49:58.806Z,99.90
2022-12-27T00:52:27.056Z,99.90
2022-12-27T00:54:55.063Z,99.90
2022-12-27T00:57:24.492Z,99.90
2022-12-27T00:59:52.548Z,99.90
2022-12-27T01:02:23.052Z,99.90
2022-12-27T01:04:54.243Z,99.90
2022-12-27T01:07:22.305Z,99.90
2022-12-27T01:09:50.414Z,99.90
2022-12-27T01:12:20.096Z,99.90
2022-12-27T01:14:49.581Z,99.90
2022-12-27T01:17:18.333Z,99.90
2022-12-27T01:19:46.417Z,99.90
2022-12-27T01:22:14.484Z,99.90
2022-12-27T01:24:43.498Z,99.90
2022-12-27T01:27:11.538Z,99.90
2022-12-27T01:29:39.905Z,99.90
2022-12-27T01:32:10.346Z,99.90
2022-12-27T01:34:38.475Z,99.90
2022-12-27T01:37:06.565Z,99.90
2022-12-27T01:39:37.442Z,99.90
2022-12-27T01:42:23.754Z,99.90
2022-12-27T01:44:57.653Z,99.90
2022-12-27T01:47:34.911Z,99.90
2022-12-27T01:50:10.624Z,99.90
2022-12-27T01:52:48.536Z,99.90
2022-12-27T01:55:23.395Z,99.90
2022-12-27T01:57:54.326Z,99.90
2022-12-27T02:00:25.169Z,99.90
2022-12-27T02:02:55.264Z,99.90
2022-12-27T02:05:25.995Z,99.90
2022-12-27T02:08:20.861Z,99.90
2022-12-27T02:10:50.352Z,99.90
2022-12-27T02:13:19.789Z,99.90
2022-12-27T02:15:48.254Z,99.90
2022-12-27T02:18:17.987Z,99.90
2022-12-27T02:21:14.311Z,99.90
2022-12-27T02:24:12.622Z,99.90
2022-12-27T02:26:47.898Z,99.90
2022-12-27T02:29:36.761Z,99.90
2022-12-27T02:32:10.351Z,99.90
2022-12-27T02:34:52.270Z,99.90
2022-12-27T02:37:21.573Z,99.90
2022-12-27T02:39:52.561Z,99.90
2022-12-27T02:42:41.910Z,99.90
2022-12-27T02:45:38.722Z,99.90
2022-12-27T02:48:31.737Z,99.90
2022-12-27T02:51:29.505Z,99.90
2022-12-27T02:54:09.295Z,99.90
2022-12-27T02:57:05.781Z,99.90
2022-12-27T03:00:09.529Z,99.90
2022-12-27T03:03:04.981Z,99.90
2022-12-27T03:05:42.911Z,99.90
2022-12-27T03:08:17.627Z,99.90
2022-12-27T03:11:07.417Z,99.90
2022-12-27T03:14:01.199Z,99.90
2022-12-27T03:16:37.865Z,99.90
2022-12-27T03:19:14.498Z,99.90
2022-12-27T03:22:04.352Z,99.90
2022-12-27T03:25:00.753Z,99.90
2022-12-27T03:27:32.958Z,99.90
2022-12-27T03:30:23.784Z,99.90
2022-12-27T03:33:16.730Z,99.90
2022-12-27T03:36:07.612Z,99.90
2022-12-27T03:38:43.302Z,99.90
2022-12-27T03:41:33.458Z,99.90
2022-12-27T03:44:04.682Z,99.90
2022-12-27T03:46:34.900Z,99.90
2022-12-27T03:49:17.887Z,99.90
2022-12-27T03:51:51.327Z,99.90
2022-12-27T03:54:26.429Z,99.90
2022-12-27T03:56:57.196Z,99.90
2022-12-27T03:59:26.621Z,99.90
2022-12-27T04:01:55.372Z,99.90
2022-12-27T04:04:23.547Z,99.90
2022-12-27T04:06:53.106Z,99.90
2022-12-27T04:09:39.164Z,99.90
2022-12-27T04:12:25.554Z,99.90
2022-12-27T04:15:10.747Z,99.90
2022-12-27T04:17:56.305Z,99.90
2022-12-27T04:20:41.629Z,99.90
2022-12-27T04:23:29.420Z,99.90
2022-12-27T04:26:14.830Z,99.90
2022-12-27T04:29:00.241Z,99.90
2022-12-27T04:31:45.934Z,99.90
2022-12-27T04:34:31.857Z,99.90
2022-12-27T04:36:59.877Z,99.90
2022-12-27T04:39:29.330Z,99.90
2022-12-27T04:42:14.961Z,99.90
2022-12-27T04:45:00.740Z,99.90
2022-12-27T04:47:42.629Z,99.90
2022-12-27T04:50:35.288Z,99.90
2022-12-27T04:53:20.613Z,99.90
2022-12-27T04:55:50.267Z,99.90
2022-12-27T04:58:18.326Z,99.90
2022-12-27T05:01:06.661Z,99.90
2022-12-27T05:03:38.156Z,99.90
2022-12-27T05:06:07.088Z,99.90
2022-12-27T05:08:52.956Z,99.90
2022-12-27T05:11:40.384Z,99.90
2022-12-27T05:14:12.055Z,99.90
2022-12-27T05:16:42.716Z,99.90
2022-12-27T05:19:12.966Z,99.90
2022-12-27T05:22:03.140Z,99.90
2022-12-27T05:24:48.929Z,99.90
2022-12-27T05:27:20.678Z,99.90
2022-12-27T05:29:48.829Z,99.90
2022-12-27T05:32:16.988Z,99.90
2022-12-27T05:34:45.030Z,99.90
2022-12-27T05:37:13.103Z,99.90
2022-12-27T05:39:41.564Z,99.90
2022-12-27T05:42:09.545Z,99.90
2022-12-27T05:44:39.003Z,99.90
2022-12-27T05:47:07.109Z,99.90
2022-12-27T05:49:35.141Z,99.90
2022-12-27T05:52:03.697Z,99.90
2022-12-27T05:54:31.711Z,99.90
2022-12-27T05:56:59.776Z,99.90
2022-12-27T05:59:27.796Z,99.90
2022-12-27T06:01:57.457Z,99.90
2022-12-27T06:04:26.078Z,99.90
2022-12-27T06:06:54.123Z,99.90
2022-12-27T06:09:22.397Z,99.90
2022-12-27T06:11:50.447Z,99.90
2022-12-27T06:14:18.465Z,99.90
2022-12-27T06:16:46.801Z,99.90
2022-12-27T06:19:17.764Z,99.90
2022-12-27T06:21:46.158Z,99.90
2022-12-27T06:24:14.277Z,99.90
2022-12-27T06:26:43.000Z,99.90
2022-12-27T06:29:13.763Z,99.90
2022-12-27T06:31:41.876Z,99.90
2022-12-27T06:34:11.856Z,99.90
2022-12-27T06:36:41.291Z,99.90
2022-12-27T06:39:09.302Z,99.90
2022-12-27T06:41:37.562Z,99.90
2022-12-27T06:44:05.968Z,99.90
2022-12-27T06:46:34.003Z,99.90
2022-12-27T06:49:02.148Z,99.90
2022-12-27T06:51:30.372Z,99.90
2022-12-27T06:54:00.039Z,99.90
2022-12-27T06:56:28.051Z,99.90
2022-12-27T06:58:56.066Z,99.90
2022-12-27T07:01:26.311Z,99.90
2022-12-27T07:03:56.893Z,99.90
2022-12-27T07:06:26.235Z,99.90
2022-12-27T07:08:55.301Z,99.90
2022-12-27T07:11:25.311Z,99.90
2022-12-27T07:13:55.497Z,99.90
2022-12-27T07:16:26.100Z,99.90
2022-12-27T07:18:55.574Z,99.90
2022-12-27T07:21:25.885Z,99.90
2022-12-27T07:23:54.429Z,99.90
2022-12-27T07:26:26.884Z,99.90
2022-12-27T07:28:55.763Z,99.90
2022-12-27T07:31:29.720Z,99.90
2022-12-27T07:33:58.856Z,99.90
2022-12-27T07:36:29.337Z,99.90
2022-12-27T07:38:58.162Z,99.90
2022-12-27T07:41:27.949Z,99.90
2022-12-27T07:43:56.035Z,99.90
2022-12-27T07:46:26.313Z,99.90
2022-12-27T07:48:55.337Z,99.90
2022-12-27T07:51:24.932Z,99.90
2022-12-27T07:53:53.705Z,99.90
2022-12-27T07:56:26.486Z,99.90
2022-12-27T07:58:57.916Z,99.90
2022-12-27T08:01:52.004Z,99.90
2022-12-27T08:04:20.207Z,99.90
2022-12-27T08:06:49.067Z,99.90
2022-12-27T08:09:25.613Z,99.90
2022-12-27T08:11:56.863Z,99.90
2022-12-27T08:14:27.402Z,99.90
2022-12-27T08:16:56.609Z,99.90
2022-12-27T08:19:24.751Z,99.90
2022-12-27T08:21:56.855Z,99.90
2022-12-27T08:24:29.685Z,99.90
2022-12-27T08:26:58.496Z,99.90
2022-12-27T08:29:29.378Z,99.90
2022-12-27T08:32:01.752Z,99.90
2022-12-27T08:34:30.691Z,99.90
2022-12-27T08:36:59.386Z,99.90
2022-12-27T08:39:36.222Z,99.90
2022-12-27T08:42:04.560Z,99.90
2022-12-27T08:44:34.250Z,99.90
2022-12-27T08:47:02.283Z,99.90
2022-12-27T08:49:30.456Z,99.90
2022-12-27T08:51:58.615Z,99.90
2022-12-27T08:54:26.758Z,99.90
2022-12-27T08:56:58.368Z,99.90
2022-12-27T08:59:26.943Z,99.90
2022-12-27T09:01:56.641Z,99.90
2022-12-27T09:04:24.776Z,99.90
2022-12-27T09:06:52.869Z,99.90
2022-12-27T09:09:21.354Z,99.90
2022-12-27T09:11:49.424Z,99.90
2022-12-27T09:14:17.467Z,99.90
2022-12-27T09:16:45.500Z,99.90
2022-12-27T09:19:15.039Z,99.90
2022-12-27T09:21:44.376Z,99.90
2022-12-27T09:24:13.003Z,99.90
2022-12-27T09:26:41.700Z,99.90
2022-12-27T09:29:13.233Z,99.90
2022-12-27T09:31:41.372Z,99.90
2022-12-27T09:34:11.208Z,99.90
2022-12-27T09:36:41.719Z,99.90
2022-12-27T09:39:13.674Z,99.90
2022-12-27T09:44:51.155Z,99.90
2022-12-27T09:47:24.602Z,99.90
2022-12-27T09:49:56.791Z,99.90
2022-12-27T09:52:30.839Z,99.90
2022-12-27T09:55:05.515Z,99.90
2022-12-27T09:57:38.212Z,99.90
2022-12-27T10:00:15.487Z,99.90
2022-12-27T10:02:45.408Z,99.90
2022-12-27T10:05:22.763Z,99.90
2022-12-27T10:08:04.668Z,99.90
2022-12-27T10:10:43.015Z,99.90
2022-12-27T10:13:29.916Z,99.90
2022-12-27T10:16:05.778Z,99.90
2022-12-27T10:18:44.123Z,99.90
2022-12-27T10:21:20.619Z,99.90
2022-12-27T10:23:55.582Z,99.90
2022-12-27T10:26:25.283Z,99.90
2022-12-27T10:28:57.652Z,99.90
2022-12-27T10:31:27.186Z,99.90
2022-12-27T10:33:55.884Z,99.90
2022-12-27T10:36:27.907Z,99.90
2022-12-27T10:38:57.910Z,99.90
2022-12-27T10:41:33.970Z,99.90
2022-12-27T10:44:02.486Z,99.90
2022-12-27T10:46:35.490Z,99.90
2022-12-27T10:49:20.546Z,99.90
2022-12-27T10:51:50.302Z,99.80
2022-12-27T10:54:23.606Z,99.90
2022-12-27T10:56:52.551Z,97.30
2022-12-27T10:59:22.954Z,95.00
2022-12-27T11:02:09.259Z,92.10
2022-12-27T11:04:37.522Z,92.00
2022-12-27T11:07:24.306Z,91.10
2022-12-27T11:10:08.377Z,90.70
2022-12-27T11:12:36.647Z,90.30
2022-12-27T11:15:07.210Z,86.30
2022-12-27T11:17:39.744Z,87.60
2022-12-27T11:20:23.535Z,88.90
2022-12-27T11:22:54.333Z,87.70
2022-12-27T11:25:25.192Z,90.00
2022-12-27T11:27:57.472Z,90.60
2022-12-27T11:30:29.907Z,89.70
2022-12-27T11:33:05.004Z,88.00
2022-12-27T11:35:38.461Z,88.20
2022-12-27T11:38:07.192Z,91.10
2022-12-27T11:40:36.989Z,92.00
2022-12-27T11:43:09.252Z,92.20
2022-12-27T11:45:42.087Z,93.10
2022-12-27T11:48:22.222Z,92.70
2022-12-27T11:51:29.990Z,94.40
2022-12-27T11:54:24.273Z,96.10
2022-12-27T11:57:02.031Z,96.10
2022-12-27T11:59:44.682Z,97.90
2022-12-27T12:02:37.470Z,99.60
2022-12-27T12:05:47.043Z,98.80
2022-12-27T12:08:47.432Z,99.00
2022-12-27T12:11:25.861Z,99.90
2022-12-27T12:14:22.979Z,99.90
2022-12-27T12:17:09.031Z,99.90
2022-12-27T12:20:04.517Z,99.90
2022-12-27T12:22:59.840Z,99.90
2022-12-27T12:25:49.054Z,99.90
2022-12-27T12:28:59.607Z,99.90
2022-12-27T12:31:50.625Z,99.90
2022-12-27T12:37:44.669Z,99.90
2022-12-27T12:40:35.711Z,99.90
2022-12-27T12:43:20.579Z,99.90
2022-12-27T12:46:06.321Z,99.90
2022-12-27T12:49:04.884Z,99.90
2022-12-27T12:51:57.530Z,99.90
2022-12-27T12:54:46.543Z,99.90
2022-12-27T12:57:35.391Z,99.90
2022-12-27T13:00:25.104Z,99.90
2022-12-27T13:03:18.889Z,99.90
2022-12-27T13:05:52.963Z,99.90
2022-12-27T13:08:27.022Z,99.90
2022-12-27T13:11:23.917Z,99.90
2022-12-27T13:14:07.787Z,99.90
2022-12-27T13:16:47.563Z,99.90
2022-12-27T13:19:45.893Z,99.90
2022-12-27T13:22:22.052Z,99.90
2022-12-27T13:25:09.759Z,99.90
2022-12-27T13:27:46.668Z,99.90
2022-12-27T13:30:21.934Z,99.90
2022-12-27T13:33:09.767Z,99.90
2022-12-27T13:35:56.157Z,99.90
2022-12-27T13:38:38.961Z,99.90
2022-12-27T13:41:28.223Z,99.90
2022-12-27T13:44:24.800Z,99.90
2022-12-27T13:47:24.674Z,99.90
2022-12-27T13:50:16.353Z,99.90
2022-12-27T13:53:00.638Z,99.90
2022-12-27T13:55:48.418Z,99.90
2022-12-27T13:58:48.376Z,99.90
2022-12-27T14:01:32.901Z,99.90
2022-12-27T14:04:16.328Z,99.90
2022-12-27T14:07:07.248Z,99.90
2022-12-27T14:10:12.366Z,99.90
2022-12-27T14:12:57.182Z,99.90
2022-12-27T14:15:32.804Z,99.90
2022-12-27T14:18:23.673Z,99.90
2022-12-27T14:21:01.158Z,99.90
2022-12-27T14:23:42.513Z,99.90
2022-12-27T14:26:51.614Z,99.90
2022-12-27T14:29:57.003Z,99.90
2022-12-27T14:33:05.192Z,99.90
2022-12-27T14:36:06.906Z,99.90
2022-12-27T14:39:21.222Z,99.90
2022-12-27T14:42:25.534Z,99.90
2022-12-27T14:45:44.790Z,99.90
2022-12-27T14:48:39.743Z,99.90
2022-12-27T14:52:02.407Z,99.90
2022-12-27T14:55:14.837Z,99.90
2022-12-27T14:57:53.520Z,99.90
2022-12-27T15:00:28.507Z,99.90
2022-12-27T15:03:21.212Z,99.90
2022-12-27T15:06:02.341Z,99.90
2022-12-27T15:08:43.350Z,99.90
2022-12-27T15:11:27.662Z,99.90
2022-12-27T15:14:12.647Z,99.90
2022-12-27T15:16:56.144Z,99.90
2022-12-27T15:19:54.024Z,99.90
2022-12-27T15:22:33.758Z,99.90
2022-12-27T15:25:15.043Z,99.90
2022-12-27T15:27:51.948Z,99.90
2022-12-27T15:30:25.400Z,99.90
2022-12-27T15:33:02.947Z,99.90
2022-12-27T15:35:57.796Z,99.90
2022-12-27T15:38:53.036Z,99.90
2022-12-27T15:41:35.028Z,99.90
2022-12-27T15:44:29.909Z,99.90
2022-12-27T15:47:29.466Z,99.90
2022-12-27T15:50:16.529Z,99.90
2022-12-27T15:53:05.450Z,99.90
2022-12-27T15:55:57.864Z,99.90
2022-12-27T15:58:27.272Z,99.90
2022-12-27T16:01:28.062Z,99.90
2022-12-27T16:03:59.787Z,99.90
2022-12-27T16:06:52.623Z,99.90
2022-12-27T16:09:36.971Z,99.90
2022-12-27T16:12:11.679Z,99.90
2022-12-27T16:14:42.077Z,99.90
2022-12-27T16:17:33.607Z,99.90
2022-12-27T16:20:18.151Z,99.90
2022-12-27T16:22:52.617Z,99.90
2022-12-27T16:25:31.327Z,99.90
2022-12-27T16:28:07.730Z,99.90
2022-12-27T16:30:48.917Z,99.90
2022-12-27T16:33:37.590Z,99.90
2022-12-27T16:36:21.786Z,99.90
2022-12-27T16:39:00.452Z,99.90
2022-12-27T16:41:45.319Z,99.90
2022-12-27T16:44:28.040Z,99.90
2022-12-27T16:47:11.054Z,99.90
2022-12-27T16:49:57.781Z,99.90
2022-12-27T16:52:47.789Z,99.90
2022-12-27T16:55:36.600Z,99.90
2022-12-27T16:58:23.458Z,99.90
2022-12-27T17:00:54.819Z,99.90
2022-12-27T17:03:35.376Z,99.90
2022-12-27T17:06:33.577Z,99.90
2022-12-27T17:09:40.197Z,99.90
2022-12-27T17:12:24.004Z,99.90
2022-12-27T17:15:01.242Z,99.90
2022-12-27T17:17:32.034Z,99.90
2022-12-27T17:20:03.927Z,99.90
2022-12-27T17:22:35.203Z,99.90
2022-12-27T17:25:05.430Z,99.90
2022-12-27T17:27:56.585Z,99.90
2022-12-27T17:30:29.948Z,99.90
2022-12-27T17:33:24.118Z,99.90
2022-12-27T17:36:10.623Z,99.90
2022-12-27T17:38:52.814Z,99.90
2022-12-27T17:41:50.832Z,99.90
2022-12-27T17:44:41.559Z,99.90
2022-12-27T17:47:27.235Z,99.90
2022-12-27T17:50:00.196Z,99.90
2022-12-27T17:52:45.473Z,99.90
2022-12-27T17:55:37.466Z,99.90
2022-12-27T17:58:14.672Z,99.90
2022-12-27T18:00:54.117Z,99.90
2022-12-27T18:03:23.449Z,99.90
2022-12-27T18:05:53.356Z,99.90
2022-12-27T18:08:29.315Z,99.90
2022-12-27T18:10:58.376Z,99.90
2022-12-27T18:13:28.574Z,99.90
2022-12-27T18:15:57.719Z,99.90
2022-12-27T18:18:30.570Z,99.90
2022-12-27T18:21:02.438Z,99.90
2022-12-27T18:23:30.729Z,99.90
2022-12-27T18:26:07.960Z,99.90
2022-12-27T18:28:43.650Z,99.90
2022-12-27T18:31:17.092Z,99.90
2022-12-27T18:33:47.883Z,99.90
2022-12-27T18:36:24.866Z,99.90
2022-12-27T18:38:58.279Z,99.90
2022-12-27T18:41:27.095Z,99.90
2022-12-27T18:44:00.873Z,99.90
2022-12-27T18:46:32.081Z,99.90
2022-12-27T18:49:01.621Z,99.90
2022-12-27T18:51:36.820Z,99.90
2022-12-27T18:54:22.966Z,99.90
2022-12-27T18:56:53.668Z,99.90
2022-12-27T18:59:26.535Z,99.90
2022-12-27T19:01:56.011Z,99.90
2022-12-27T19:04:27.040Z,99.90
2022-12-27T19:07:05.366Z,99.90
2022-12-27T19:09:38.315Z,99.90
2022-12-27T19:12:08.729Z,99.90
2022-12-27T19:14:42.843Z,99.90
2022-12-27T19:17:18.451Z,99.90
2022-12-27T19:19:50.430Z,99.90
2022-12-27T19:22:44.615Z,99.90
2022-12-27T19:25:22.539Z,99.90
2022-12-27T19:28:03.066Z,99.90
2022-12-27T19:30:43.747Z,99.90
2022-12-27T19:33:23.849Z,99.90
2022-12-27T19:35:58.679Z,99.90
2022-12-27T19:38:31.181Z,99.90
2022-12-27T19:41:05.548Z,99.90
2022-12-27T19:43:40.448Z,99.90
2022-12-27T19:46:30.894Z,99.90
2022-12-27T19:51:48.321Z,99.90
2022-12-27T19:54:19.980Z,99.90
2022-12-27T19:56:53.033Z,99.90
2022-12-27T19:59:22.782Z,99.90
2022-12-27T20:01:56.087Z,99.90
2022-12-27T20:04:29.444Z,99.90
2022-12-27T20:06:57.720Z,99.90
2022-12-27T20:09:27.523Z,99.90
2022-12-27T20:11:55.755Z,99.90
2022-12-27T20:14:26.791Z,99.90
2022-12-27T20:16:55.151Z,99.90
2022-12-27T20:19:29.081Z,99.90
2022-12-27T20:21:58.603Z,99.90
2022-12-27T20:24:34.352Z,99.90
2022-12-27T20:27:04.148Z,99.90
2022-12-27T20:29:32.523Z,99.90
2022-12-27T20:32:05.678Z,99.90
2022-12-27T20:34:33.871Z,99.90
2022-12-27T20:37:02.072Z,99.90
2022-12-27T20:39:31.603Z,99.90
2022-12-27T20:41:59.793Z,99.90
2022-12-27T20:44:28.211Z,99.90
2022-12-27T20:46:56.471Z,99.90
2022-12-27T20:49:25.035Z,99.90
2022-12-27T20:51:53.162Z,99.90
2022-12-27T20:54:26.618Z,99.90
2022-12-27T20:57:02.937Z,99.90
2022-12-27T20:59:31.149Z,99.90
2022-12-27T21:02:00.441Z,99.90
2022-12-27T21:04:28.742Z,99.90
2022-12-27T21:06:56.824Z,99.90
2022-12-27T21:09:32.009Z,99.90
2022-12-27T21:12:04.065Z,99.90
2022-12-27T21:14:33.898Z,99.90
2022-12-27T21:17:02.076Z,99.90
2022-12-27T21:19:30.399Z,99.90
2022-12-27T21:21:59.160Z,99.90
2022-12-27T21:24:29.559Z,99.90
2022-12-27T21:26:57.705Z,99.90
2022-12-27T21:29:27.565Z,99.90
2022-12-27T21:31:56.476Z,99.90
2022-12-27T21:34:31.444Z,99.90
2022-12-27T21:37:01.388Z,99.90
2022-12-27T21:39:30.277Z,99.90
2022-12-27T21:41:58.416Z,99.90
2022-12-27T21:44:27.907Z,99.90
2022-12-27T21:46:56.387Z,99.90
2022-12-27T21:49:24.797Z,99.90
2022-12-27T21:51:55.789Z,99.90
2022-12-27T21:54:26.062Z,99.90
2022-12-27T21:57:04.771Z,99.90
2022-12-27T21:59:35.635Z,99.90
2022-12-27T22:02:04.482Z,99.90
2022-12-27T22:04:32.769Z,99.90
2022-12-27T22:07:00.854Z,99.90
2022-12-27T22:09:31.432Z,99.90
2022-12-27T22:11:59.527Z,99.90
2022-12-27T22:14:31.835Z,99.90
2022-12-27T22:17:04.902Z,99.90
2022-12-27T22:19:33.243Z,99.90
2022-12-27T22:22:01.374Z,99.90
2022-12-27T22:24:30.660Z,99.90
2022-12-27T22:26:58.816Z,99.90
2022-12-27T22:29:30.408Z,99.90
2022-12-27T22:32:04.688Z,99.90
2022-12-27T22:34:32.721Z,99.90
2022-12-27T22:37:00.808Z,99.90
2022-12-27T22:39:29.399Z,99.90
2022-12-27T22:41:57.583Z,99.90
2022-12-27T22:44:27.687Z,99.90
2022-12-27T22:47:25.083Z,99.90
2022-12-27T22:49:48.854Z,99.90
2022-12-27T22:52:17.038Z,99.90
2022-12-27T22:55:03.999Z,99.90
2022-12-27T22:57:33.665Z,99.90
2022-12-27T23:00:01.843Z,99.90
2022-12-27T23:02:30.448Z,99.90
2022-12-27T23:05:00.544Z,99.90
2022-12-27T23:08:05.703Z,99.90
2022-12-27T23:10:16.957Z,99.90
2022-12-27T23:12:45.162Z,99.90
2022-12-27T23:15:13.699Z,99.90
2022-12-27T23:17:41.761Z,99.90
2022-12-27T23:20:13.054Z,99.90
2022-12-27T23:22:41.214Z,99.90
2022-12-27T23:25:09.822Z,99.90
2022-12-27T23:27:38.229Z,99.90
2022-12-27T23:30:07.431Z,99.90
2022-12-27T23:32:35.998Z,99.90
2022-12-27T23:35:04.223Z,99.90
2022-12-27T23:37:33.872Z,99.90
2022-12-27T23:40:02.810Z,99.90
2022-12-27T23:42:31.097Z,99.90
2022-12-27T23:44:59.579Z,99.90
2022-12-27T23:47:27.727Z,99.90
2022-12-27T23:49:56.066Z,99.90
2022-12-27T23:52:24.732Z,99.90
2022-12-27T23:54:54.327Z,99.90
2022-12-27T23:57:23.031Z,99.90
2022-12-27T23:59:51.916Z,99.90
